»·PEaware :: N822JH KSBP-KMRY

N822JH :: KSBP-KMRY

FLIGHT INFORMATION

Flight Status: Arrived
Operator: Privately registered:
United States
More flights under this callsign
Pilot: Anonymous 16594 (16594)
Aircraft: PIPER PA-24 COMMANCHE
(PA24)
More flights by this aircraft type
Origin: KSBP San Luis Co Regl
United States
Destination: KMRY Monterey Peninsula
United States
More flights between these airports :: More routes between these airports
Route: +
File this flight plan on PilotEdge
Remarks:
Altitude:
(Current/Filed)
4,500ft
Speed:
(Current/Filed)
140kts
Departed: 21-Sep-17 06:16 PM
Arrived: 21-Sep-17 07:08 PM
Distance/Time
Traveled:
100nm/0:52
Distance/Time
To Go:
Arrived

Flight Plot

Page will automatically refresh every two minutes.


Map Options




Map Legend


Flown Route
Filed Route
Departure Airport
Arrival Airport
Navaid (VOR, NDB)
Fix

Horizontal Profiles

Position Reports

Time Latitude Longitude Heading Altitude Ground
Speed
21-Sep-17 18:10 35.238393 -120.646492 0 215ft 0kts
21-Sep-17 18:11 35.238394 -120.646492 0 215ft 0kts
21-Sep-17 18:12 35.238395 -120.646492 0 215ft 0kts
21-Sep-17 18:13 35.238396 -120.646492 0 215ft 0kts
21-Sep-17 18:14 35.238397 -120.646492 0 215ft 0kts
21-Sep-17 18:15 35.238455 -120.645047 123 215ft 15kts
21-Sep-17 18:16 35.237091 -120.638675 124 215ft 24kts
21-Sep-17 18:17 35.233276 -120.632400 226 215ft 0kts
21-Sep-17 18:18 35.233273 -120.632405 226 215ft 0kts
21-Sep-17 18:19 35.233269 -120.632409 226 215ft 0kts
21-Sep-17 18:20 35.235728 -120.638178 307 249ft 77kts
21-Sep-17 18:21 35.251638 -120.666954 322 1239ft 106kts
21-Sep-17 18:22 35.282161 -120.676470 330 1829ft 115kts
21-Sep-17 18:23 35.307983 -120.699613 310 2552ft 119kts
21-Sep-17 18:24 35.328399 -120.733574 306 4785ft 127kts
21-Sep-17 18:25 35.348935 -120.770774 298 6194ft 136kts
21-Sep-17 18:26 35.369144 -120.810602 303 5700ft 138kts
21-Sep-17 18:27 35.387700 -120.851252 299 4966ft 136kts
21-Sep-17 18:28 35.406438 -120.893006 299 4387ft 129kts
21-Sep-17 18:29 35.422281 -120.928285 301 4204ft 116kts
21-Sep-17 18:30 35.434773 -120.964245 298 4183ft 109kts
21-Sep-17 18:31 35.453410 -120.994773 305 4342ft 112kts
21-Sep-17 18:32 35.468305 -121.028604 300 4510ft 115kts
21-Sep-17 18:33 35.484279 -121.062154 306 4590ft 116kts
21-Sep-17 18:34 35.502125 -121.095031 304 4587ft 114kts
21-Sep-17 18:35 35.520464 -121.127291 310 4580ft 116kts
21-Sep-17 18:36 35.543726 -121.158523 315 4549ft 126kts
21-Sep-17 18:37 35.569078 -121.188451 320 4548ft 126kts
21-Sep-17 18:38 35.595884 -121.216267 313 4561ft 125kts
21-Sep-17 18:39 35.617695 -121.250894 306 4592ft 128kts
21-Sep-17 18:40 35.640074 -121.285029 315 4490ft 127kts
21-Sep-17 18:41 35.664743 -121.316440 316 4382ft 126kts
21-Sep-17 18:42 35.689135 -121.345900 320 4520ft 118kts
21-Sep-17 18:43 35.715974 -121.370730 320 4571ft 123kts
21-Sep-17 18:44 35.741689 -121.398565 322 4638ft 122kts
21-Sep-17 18:45 35.767857 -121.425276 320 4679ft 123kts
21-Sep-17 18:46 35.793252 -121.453695 318 4663ft 126kts
21-Sep-17 18:47 35.820411 -121.480160 326 4650ft 123kts
21-Sep-17 18:48 35.849310 -121.504023 326 4617ft 123kts
21-Sep-17 18:49 35.875771 -121.530668 317 4687ft 121kts
21-Sep-17 18:50 35.902614 -121.558300 321 4267ft 124kts
21-Sep-17 18:51 35.928238 -121.587161 315 3989ft 121kts
21-Sep-17 18:52 35.952540 -121.611302 323 4452ft 110kts
21-Sep-17 18:53 35.978883 -121.634488 324 4690ft 120kts
21-Sep-17 18:54 36.005978 -121.659631 322 4897ft 125kts
21-Sep-17 18:55 36.036902 -121.686649 322 4855ft 139kts
21-Sep-17 18:56 36.072266 -121.706904 335 4748ft 141kts
21-Sep-17 18:57 36.108973 -121.726464 335 4506ft 144kts
21-Sep-17 18:58 36.145994 -121.745932 335 4354ft 140kts
21-Sep-17 18:59 36.181654 -121.766010 330 4242ft 142kts
21-Sep-17 19:00 36.214787 -121.790701 324 4273ft 134kts
21-Sep-17 19:01 36.247730 -121.813242 333 4372ft 136kts
21-Sep-17 19:02 36.283463 -121.831879 336 4244ft 139kts
21-Sep-17 19:03 36.319511 -121.850360 339 4175ft 143kts
21-Sep-17 19:04 36.358553 -121.863508 344 4193ft 144kts
21-Sep-17 19:05 36.397977 -121.851681 17 4130ft 149kts
21-Sep-17 19:06 36.438072 -121.840821 2 3698ft 145kts
21-Sep-17 19:07 36.476650 -121.826841 18 2261ft 130kts
21-Sep-17 19:08 36.510665 -121.818744 6 1241ft 128kts
21-Sep-17 19:09 36.541408 -121.811852 39 1356ft 126kts
21-Sep-17 19:10 36.570608 -121.809096 318 1273ft 104kts
21-Sep-17 19:11 36.583586 -121.834421 291 297ft 74kts
21-Sep-17 19:12 36.586809 -121.845732 199 260ft 5kts
21-Sep-17 19:13 36.587279 -121.848435 295 260ft 17kts
21-Sep-17 19:14 36.589060 -121.853615 275 260ft 9kts
21-Sep-17 19:15 36.588561 -121.854797 337 260ft 0kts
21-Sep-17 19:16 36.588562 -121.854798 337 260ft 0kts

Navigation Log

Ident Type
Flight plan parsing failed, navigation log unavailable